Lake of the Forest, Kansas
Current Conditions -  °F | °C
As of 7:53 PM on Monday 20 Oct 2014 (Local Time) from KIXD Reporting Station
Clear Clear  
Wind Chill: 14°   Ceiling: Unl
Heat Index: 14°   Visibility: 10mi
Dew Point:   Wind: 6mph
Humidity: 67%   Direction: 10°N
Pressure: 30.05"   Gusts: NA
Location:  39.0619°N, 94.8881°W
Report Text: KIXD 210053Z 01005KT 10SM CLR 14/08 A3005 RMK AO2 SLP175 T01390078
Loading
Personal Weather Stations






























Interactive Weather Map
Tropical Storm Tracking
New forecast layout! Learn more

10-Day Weather Forecast

Advertisements
Track Severe Weather on mobile